Time;durP1;ratioP1;P1;durP2;ratioP2;P2;SDS_P1;SDS_P2;PMS_P1;PMS_P2;Temp;Humidity;BMP_temperature;BMP_pressure;BME280_temperature;BME280_humidity;BME280_pressure;Samples;Min_cycle;Max_cycle;Signal;HPM_P1;HPM_P2
2023/09/21 00:02:13;;;;;;;;;;;22.50;1.00;;;;;;4900095;29;20019;-53
2023/09/21 00:04:40;;;;;;;;;;;22.50;1.00;;;;;;4900187;29;20022;-49
2023/09/21 00:07:07;;;;;;;;;;;22.50;1.00;;;;;;4899091;29;19927;-52
2023/09/21 00:09:34;;;;;;;;;;;22.50;1.00;;;;;;4900042;29;19928;-50
2023/09/21 00:12:01;;;;;;;;;;;22.50;1.00;;;;;;4899965;29;19927;-50
2023/09/21 00:14:28;;;;;;;;;;;22.50;1.00;;;;;;4899839;29;19976;-50
2023/09/21 00:16:54;;;;;;;;;;;22.50;1.00;;;;;;4899567;29;20354;-51
2023/09/21 00:19:23;;;;;;;;;;;22.40;1.00;;;;;;4899810;29;19928;-50
2023/09/21 00:21:53;;;;;;;;;;;22.50;1.00;;;;;;4899739;29;19927;-49
2023/09/21 00:24:21;;;;;;;;;;;22.40;1.00;;;;;;4899855;29;20407;-49
2023/09/21 00:26:50;;;;;;;;;;;22.40;1.00;;;;;;4899430;29;19992;-50
2023/09/21 00:29:17;;;;;;;;;;;22.40;1.00;;;;;;4882749;29;19990;-49
2023/09/21 00:31:44;;;;;;;;;;;22.40;1.00;;;;;;4882901;29;19979;-49
2023/09/21 00:34:11;;;;;;;;;;;22.40;1.00;;;;;;4884242;29;20034;-51
2023/09/21 00:36:42;;;;;;;;;;;22.40;1.00;;;;;;4918083;29;19959;-53
2023/09/21 00:39:11;;;;;;;;;;;22.40;1.00;;;;;;4901299;29;19927;-49
2023/09/21 00:41:38;;;;;;;;;;;22.40;1.00;;;;;;4918437;29;19934;-51
2023/09/21 00:44:08;;;;;;;;;;;22.40;1.00;;;;;;4901328;29;20004;-52
2023/09/21 00:46:36;;;;;;;;;;;22.40;1.00;;;;;;4917861;29;19928;-51
2023/09/21 00:49:04;;;;;;;;;;;22.40;1.00;;;;;;4898371;29;19939;-51
2023/09/21 00:51:33;;;;;;;;;;;22.40;1.00;;;;;;4901123;29;20572;-49
2023/09/21 00:54:00;;;;;;;;;;;22.40;1.00;;;;;;4900840;29;20244;-54
2023/09/21 00:56:28;;;;;;;;;;;22.40;1.00;;;;;;4917659;29;20375;-51
2023/09/21 00:58:57;;;;;;;;;;;22.40;1.00;;;;;;4918164;29;19935;-53
2023/09/21 01:01:27;;;;;;;;;;;22.40;1.00;;;;;;4901017;29;20323;-53
2023/09/21 01:03:55;;;;;;;;;;;22.40;1.00;;;;;;4918053;29;19927;-54
2023/09/21 01:06:23;;;;;;;;;;;22.40;1.00;;;;;;4897383;29;19938;-51
2023/09/21 01:08:51;;;;;;;;;;;22.40;1.00;;;;;;4899018;29;19931;-49
2023/09/21 01:11:19;;;;;;;;;;;22.40;1.00;;;;;;4884070;29;19927;-52
2023/09/21 01:13:49;;;;;;;;;;;22.40;1.00;;;;;;4900224;29;19953;-50
2023/09/21 01:16:18;;;;;;;;;;;22.40;1.00;;;;;;4917155;29;20017;-51
2023/09/21 01:18:46;;;;;;;;;;;22.40;1.00;;;;;;4896411;29;19975;-49
2023/09/21 01:21:15;;;;;;;;;;;22.40;1.00;;;;;;4899103;29;20298;-49
2023/09/21 01:23:45;;;;;;;;;;;22.40;1.00;;;;;;4917681;29;20010;-49
2023/09/21 01:26:14;;;;;;;;;;;22.40;1.00;;;;;;4917290;29;19953;-54
2023/09/21 01:28:41;;;;;;;;;;;22.30;1.00;;;;;;4917509;29;19927;-49
2023/09/21 01:31:09;;;;;;;;;;;22.30;1.00;;;;;;4900467;29;19927;-52
2023/09/21 01:33:36;;;;;;;;;;;22.40;1.00;;;;;;4900342;29;20017;-53
2023/09/21 01:36:08;;;;;;;;;;;22.40;1.00;;;;;;4899741;29;19978;-49
2023/09/21 01:38:35;;;;;;;;;;;22.30;1.00;;;;;;4900242;29;20025;-49
2023/09/21 01:41:03;;;;;;;;;;;22.40;1.00;;;;;;4900176;29;20196;-54
2023/09/21 01:43:30;;;;;;;;;;;22.30;1.00;;;;;;4900140;29;19935;-54
2023/09/21 01:45:56;;;;;;;;;;;22.30;1.00;;;;;;4899976;29;20360;-52
2023/09/21 01:48:23;;;;;;;;;;;22.30;1.00;;;;;;4899946;29;19927;-52
2023/09/21 01:50:58;;;;;;;;;;;22.40;1.00;;;;;;5070209;28;19927;-56
2023/09/21 01:53:24;;;;;;;;;;;22.30;1.00;;;;;;5068598;28;20455;-55
2023/09/21 01:55:51;;;;;;;;;;;22.30;1.00;;;;;;5063985;28;19952;-50
2023/09/21 01:58:23;;;;;;;;;;;22.30;1.00;;;;;;5048583;28;20387;-55
2023/09/21 02:00:50;;;;;;;;;;;22.30;1.00;;;;;;5048520;28;19929;-54
2023/09/21 02:03:19;;;;;;;;;;;22.30;1.00;;;;;;5048301;28;19955;-54
2023/09/21 02:05:46;;;;;;;;;;;22.30;1.00;;;;;;5049500;28;19978;-52
2023/09/21 02:08:15;;;;;;;;;;;22.30;1.00;;;;;;5049946;28;19925;-51
2023/09/21 02:10:44;;;;;;;;;;;22.30;1.00;;;;;;5048261;28;19925;-55
2023/09/21 02:13:11;;;;;;;;;;;22.30;1.00;;;;;;5048286;28;19929;-53
2023/09/21 02:15:38;;;;;;;;;;;22.30;1.00;;;;;;5047942;28;19925;-51
2023/09/21 02:18:06;;;;;;;;;;;22.30;1.00;;;;;;5048006;28;19925;-54
2023/09/21 02:20:35;;;;;;;;;;;22.30;1.00;;;;;;5048030;28;20454;-54
2023/09/21 02:23:02;;;;;;;;;;;22.30;1.00;;;;;;5049609;28;19925;-56
2023/09/21 02:25:34;;;;;;;;;;;22.30;1.00;;;;;;5049047;28;19929;-52
2023/09/21 02:28:09;;;;;;;;;;;22.30;1.00;;;;;;5049521;28;19964;-54
2023/09/21 02:30:37;;;;;;;;;;;22.30;1.00;;;;;;5047889;28;20312;-54
2023/09/21 02:33:04;;;;;;;;;;;22.30;1.00;;;;;;5047835;28;19931;-54
2023/09/21 02:35:33;;;;;;;;;;;22.30;1.00;;;;;;5047545;28;19932;-51
2023/09/21 02:38:00;;;;;;;;;;;22.30;1.00;;;;;;5047799;28;19937;-54
2023/09/21 02:40:27;;;;;;;;;;;22.30;1.00;;;;;;5049014;28;19947;-56
2023/09/21 02:42:54;;;;;;;;;;;22.30;1.00;;;;;;5047754;28;19925;-51
2023/09/21 02:45:23;;;;;;;;;;;22.30;1.00;;;;;;5047364;28;19925;-52
2023/09/21 02:48:00;;;;;;;;;;;22.30;1.00;;;;;;5049058;28;19925;-56
2023/09/21 02:50:28;;;;;;;;;;;22.30;1.00;;;;;;5047277;28;19929;-53
2023/09/21 02:53:09;;;;;;;;;;;22.30;1.00;;;;;;5047559;28;19925;-52
2023/09/21 02:55:37;;;;;;;;;;;22.30;1.00;;;;;;5040429;28;19925;-52
2023/09/21 02:58:11;;;;;;;;;;;22.30;1.00;;;;;;5047431;28;19932;-52
2023/09/21 03:00:51;;;;;;;;;;;22.30;1.00;;;;;;5042221;28;19925;-55
2023/09/21 03:03:22;;;;;;;;;;;22.30;1.00;;;;;;5034053;28;19979;-54
2023/09/21 03:05:49;;;;;;;;;;;22.30;1.00;;;;;;5033827;28;19979;-51
2023/09/21 03:08:17;;;;;;;;;;;22.30;1.00;;;;;;5033912;28;19940;-56
2023/09/21 03:10:54;;;;;;;;;;;22.30;1.00;;;;;;5034038;28;19925;-51
2023/09/21 03:13:22;;;;;;;;;;;22.30;1.00;;;;;;5035250;28;19929;-54
2023/09/21 03:15:52;;;;;;;;;;;22.30;1.00;;;;;;5033487;28;19925;-56
2023/09/21 03:18:19;;;;;;;;;;;22.30;1.00;;;;;;5033859;28;19955;-52
2023/09/21 03:20:51;;;;;;;;;;;22.30;1.00;;;;;;5033702;28;19968;-51
2023/09/21 03:23:18;;;;;;;;;;;22.30;1.00;;;;;;5033715;28;19929;-53
2023/09/21 03:25:47;;;;;;;;;;;22.30;1.00;;;;;;5033381;28;20382;-53
2023/09/21 03:28:14;;;;;;;;;;;22.30;1.00;;;;;;5035034;28;19925;-55
2023/09/21 03:30:45;;;;;;;;;;;22.30;1.00;;;;;;5034923;28;19925;-51
2023/09/21 03:33:13;;;;;;;;;;;22.20;1.00;;;;;;5034933;28;19925;-52
2023/09/21 03:35:42;;;;;;;;;;;22.30;1.00;;;;;;5033121;28;20382;-55
2023/09/21 03:38:18;;;;;;;;;;;22.20;1.00;;;;;;5033473;28;20027;-55
2023/09/21 03:40:48;;;;;;;;;;;22.30;1.00;;;;;;5034895;28;19933;-51
2023/09/21 03:43:15;;;;;;;;;;;22.20;1.00;;;;;;5034676;28;19925;-55
2023/09/21 03:45:43;;;;;;;;;;;22.20;1.00;;;;;;5034299;28;19925;-53
2023/09/21 03:48:10;;;;;;;;;;;22.20;1.00;;;;;;5033158;28;20047;-56
2023/09/21 03:50:38;;;;;;;;;;;22.30;1.00;;;;;;5033000;28;19929;-52
2023/09/21 03:53:08;;;;;;;;;;;22.20;1.00;;;;;;5033173;28;19925;-54
2023/09/21 03:55:36;;;;;;;;;;;22.20;1.00;;;;;;5032723;28;20442;-53
2023/09/21 03:58:05;;;;;;;;;;;22.20;1.00;;;;;;5034504;28;20426;-53
2023/09/21 04:03:06;;;;;;;;;;;22.20;1.00;;;;;;5034336;28;19931;-53
2023/09/21 04:05:35;;;;;;;;;;;22.20;1.00;;;;;;5032587;28;19925;-51
2023/09/21 04:08:06;;;;;;;;;;;22.20;1.00;;;;;;5030869;28;19940;-52
2023/09/21 04:10:33;;;;;;;;;;;22.20;1.00;;;;;;5033258;28;19929;-52
2023/09/21 04:13:00;;;;;;;;;;;22.20;1.00;;;;;;5027104;28;20393;-50
2023/09/21 04:15:27;;;;;;;;;;;22.20;1.00;;;;;;5021806;28;19959;-50
2023/09/21 04:17:55;;;;;;;;;;;22.20;1.00;;;;;;5032726;28;19925;-51
2023/09/21 04:20:23;;;;;;;;;;;22.20;1.00;;;;;;5032537;28;19960;-52
2023/09/21 04:22:52;;;;;;;;;;;22.20;1.00;;;;;;5032177;28;19991;-54
2023/09/21 04:25:18;;;;;;;;;;;22.20;1.00;;;;;;5032220;28;19932;-55
2023/09/21 04:27:46;;;;;;;;;;;22.20;1.00;;;;;;5032507;28;19947;-52
2023/09/21 04:30:21;;;;;;;;;;;22.20;1.00;;;;;;5032220;28;19925;-51
2023/09/21 04:32:49;;;;;;;;;;;22.20;1.00;;;;;;5032275;28;19972;-55
2023/09/21 04:35:18;;;;;;;;;;;22.20;1.00;;;;;;5031795;28;19925;-53
2023/09/21 04:37:46;;;;;;;;;;;22.20;1.00;;;;;;5032161;28;19925;-54
2023/09/21 04:40:13;;;;;;;;;;;22.20;1.00;;;;;;5031951;28;20325;-55
2023/09/21 04:42:45;;;;;;;;;;;22.20;1.00;;;;;;5031979;28;19951;-52
2023/09/21 04:45:16;;;;;;;;;;;22.20;1.00;;;;;;5031633;28;20367;-55
2023/09/21 04:47:49;;;;;;;;;;;22.20;1.00;;;;;;5031845;28;20349;-50
2023/09/21 04:50:17;;;;;;;;;;;22.20;1.00;;;;;;5028968;28;20149;-54
2023/09/21 04:52:44;;;;;;;;;;;22.20;1.00;;;;;;5031062;28;19931;-54
2023/09/21 04:55:16;;;;;;;;;;;22.20;1.00;;;;;;5027291;28;19936;-55
2023/09/21 04:57:44;;;;;;;;;;;22.20;1.00;;;;;;5027756;28;19971;-55
2023/09/21 05:00:13;;;;;;;;;;;22.20;1.00;;;;;;5043300;28;19925;-51
2023/09/21 05:02:42;;;;;;;;;;;22.20;1.00;;;;;;5031540;28;20298;-55
2023/09/21 05:05:14;;;;;;;;;;;22.20;1.00;;;;;;5031159;28;19971;-54
2023/09/21 05:07:42;;;;;;;;;;;22.20;1.00;;;;;;5032748;28;20378;-55
2023/09/21 05:10:12;;;;;;;;;;;22.20;1.00;;;;;;5031483;28;19925;-51
2023/09/21 05:12:40;;;;;;;;;;;22.20;1.00;;;;;;5031350;28;19937;-55
2023/09/21 05:15:08;;;;;;;;;;;22.20;1.00;;;;;;5032575;28;19940;-50
2023/09/21 05:17:38;;;;;;;;;;;22.20;1.00;;;;;;5032433;28;19925;-54
2023/09/21 05:20:09;;;;;;;;;;;22.20;1.00;;;;;;5033056;28;20365;-51
2023/09/21 05:22:39;;;;;;;;;;;22.20;1.00;;;;;;5032958;28;19925;-52
2023/09/21 05:25:06;;;;;;;;;;;22.20;1.00;;;;;;5032213;28;19925;-55
2023/09/21 05:27:33;;;;;;;;;;;22.20;1.00;;;;;;5032046;28;19926;-52
2023/09/21 05:30:01;;;;;;;;;;;22.20;1.00;;;;;;5032581;28;20329;-56
2023/09/21 05:32:32;;;;;;;;;;;22.20;1.00;;;;;;5032392;28;19971;-53
2023/09/21 05:34:59;;;;;;;;;;;22.20;1.00;;;;;;5032428;28;19925;-54
2023/09/21 05:37:26;;;;;;;;;;;22.20;1.00;;;;;;5032049;28;19964;-52
2023/09/21 05:39:53;;;;;;;;;;;22.10;1.00;;;;;;5032473;28;20015;-51
2023/09/21 05:42:23;;;;;;;;;;;22.10;1.00;;;;;;5032254;28;20417;-50
2023/09/21 05:44:50;;;;;;;;;;;22.10;1.00;;;;;;5031734;28;19972;-51
2023/09/21 05:47:17;;;;;;;;;;;22.10;1.00;;;;;;5031279;28;20023;-53
2023/09/21 05:49:43;;;;;;;;;;;22.10;1.00;;;;;;5032038;28;20016;-55
2023/09/21 05:52:13;;;;;;;;;;;22.10;1.00;;;;;;5032221;28;20347;-53
2023/09/21 05:54:42;;;;;;;;;;;22.10;1.00;;;;;;5031472;28;19925;-56
2023/09/21 05:57:09;;;;;;;;;;;22.10;1.00;;;;;;5031743;28;19925;-50
2023/09/21 05:59:36;;;;;;;;;;;22.10;1.00;;;;;;5032011;28;19932;-52
2023/09/21 06:02:05;;;;;;;;;;;22.10;1.00;;;;;;5032215;28;20021;-56
2023/09/21 06:04:34;;;;;;;;;;;22.10;1.00;;;;;;5031876;28;20361;-51
2023/09/21 06:07:01;;;;;;;;;;;22.10;1.00;;;;;;5031894;28;20397;-51
2023/09/21 06:09:27;;;;;;;;;;;22.10;1.00;;;;;;5031978;28;19995;-53
2023/09/21 06:11:54;;;;;;;;;;;22.10;1.00;;;;;;5032032;28;20024;-56
2023/09/21 06:14:22;;;;;;;;;;;22.10;1.00;;;;;;5032066;28;20031;-53
2023/09/21 06:16:51;;;;;;;;;;;22.10;1.00;;;;;;5031607;28;19925;-55
2023/09/21 06:19:18;;;;;;;;;;;22.10;1.00;;;;;;5031561;28;19926;-56
2023/09/21 06:21:47;;;;;;;;;;;22.10;1.00;;;;;;5031863;28;19956;-55
2023/09/21 06:24:15;;;;;;;;;;;22.10;1.00;;;;;;5032042;28;19932;-55
2023/09/21 06:26:42;;;;;;;;;;;22.10;1.00;;;;;;5031291;28;20398;-51
2023/09/21 06:29:10;;;;;;;;;;;22.10;1.00;;;;;;5030545;28;19932;-54
2023/09/21 06:31:37;;;;;;;;;;;22.10;1.00;;;;;;5031349;28;19925;-51
2023/09/21 06:34:07;;;;;;;;;;;22.10;1.00;;;;;;5031823;28;20267;-55
2023/09/21 06:36:36;;;;;;;;;;;22.10;1.00;;;;;;5033211;28;19925;-50
2023/09/21 06:39:05;;;;;;;;;;;22.10;1.00;;;;;;5035656;28;20290;-55
2023/09/21 06:41:32;;;;;;;;;;;22.10;1.00;;;;;;5035286;28;19929;-55
2023/09/21 06:43:59;;;;;;;;;;;22.10;1.00;;;;;;5035496;28;19925;-54
2023/09/21 06:46:25;;;;;;;;;;;22.10;1.00;;;;;;5034916;28;19925;-54
2023/09/21 06:48:53;;;;;;;;;;;22.10;1.00;;;;;;5035241;28;19929;-55
2023/09/21 06:51:21;;;;;;;;;;;22.00;1.00;;;;;;5035235;28;19929;-55
2023/09/21 06:53:49;;;;;;;;;;;22.00;1.00;;;;;;5035124;28;19925;-54
2023/09/21 06:56:20;;;;;;;;;;;22.00;1.00;;;;;;5034925;28;20382;-54
2023/09/21 06:58:47;;;;;;;;;;;22.00;1.00;;;;;;5035183;28;19971;-53
2023/09/21 07:01:14;;;;;;;;;;;22.00;1.00;;;;;;5035109;28;20279;-54
2023/09/21 07:03:41;;;;;;;;;;;22.00;1.00;;;;;;5034972;28;19925;-56
2023/09/21 07:06:09;;;;;;;;;;;22.00;1.00;;;;;;5034685;28;19925;-54
2023/09/21 07:08:36;;;;;;;;;;;22.00;1.00;;;;;;5034882;28;19925;-54
2023/09/21 07:11:03;;;;;;;;;;;22.00;1.00;;;;;;5034828;28;20337;-52
2023/09/21 07:13:30;;;;;;;;;;;22.00;1.00;;;;;;5034925;28;19925;-55
2023/09/21 07:15:58;;;;;;;;;;;22.00;1.00;;;;;;5034430;28;19999;-55
2023/09/21 07:18:25;;;;;;;;;;;22.00;1.00;;;;;;5034917;28;19933;-55
2023/09/21 07:20:53;;;;;;;;;;;22.00;1.00;;;;;;5034814;28;19929;-55
2023/09/21 07:23:19;;;;;;;;;;;22.00;1.00;;;;;;5034777;28;19996;-52
2023/09/21 07:25:46;;;;;;;;;;;22.00;1.00;;;;;;5034259;28;19929;-55
2023/09/21 07:28:13;;;;;;;;;;;22.00;1.00;;;;;;5034709;28;19944;-55
2023/09/21 07:30:39;;;;;;;;;;;22.00;1.00;;;;;;5034292;28;19932;-52
2023/09/21 07:33:08;;;;;;;;;;;22.00;1.00;;;;;;5034608;28;19925;-54
2023/09/21 07:35:36;;;;;;;;;;;22.00;1.00;;;;;;5034199;28;19925;-54
2023/09/21 07:38:03;;;;;;;;;;;22.00;1.00;;;;;;5034434;28;20032;-53
2023/09/21 07:40:31;;;;;;;;;;;22.00;1.00;;;;;;5034373;28;19971;-56
2023/09/21 07:42:58;;;;;;;;;;;22.00;1.00;;;;;;5034359;28;19925;-55
2023/09/21 07:45:25;;;;;;;;;;;22.00;1.00;;;;;;5033956;28;19960;-56
2023/09/21 07:47:54;;;;;;;;;;;22.00;1.00;;;;;;5034413;28;20410;-55
2023/09/21 07:50:26;;;;;;;;;;;22.00;1.00;;;;;;5034100;28;20016;-55
2023/09/21 07:52:56;;;;;;;;;;;22.00;1.00;;;;;;5034108;28;19932;-55
2023/09/21 07:55:22;;;;;;;;;;;22.00;1.00;;;;;;5033667;28;20039;-56
2023/09/21 07:57:50;;;;;;;;;;;22.00;1.00;;;;;;5034097;28;20381;-54
2023/09/21 08:00:17;;;;;;;;;;;22.00;1.00;;;;;;5034138;28;20413;-54
2023/09/21 08:02:44;;;;;;;;;;;22.00;1.00;;;;;;5033924;28;19925;-54
2023/09/21 08:05:11;;;;;;;;;;;22.00;1.00;;;;;;5033472;28;19932;-54
2023/09/21 08:07:38;;;;;;;;;;;22.00;1.00;;;;;;5033957;28;20028;-54
2023/09/21 08:10:05;;;;;;;;;;;22.00;1.00;;;;;;5033864;28;19960;-55
2023/09/21 08:12:32;;;;;;;;;;;22.00;1.00;;;;;;5033779;28;19964;-56
2023/09/21 08:15:00;;;;;;;;;;;22.00;1.00;;;;;;5033699;28;20365;-55
2023/09/21 08:17:30;;;;;;;;;;;22.00;1.00;;;;;;5033366;28;19925;-55
2023/09/21 08:19:57;;;;;;;;;;;21.90;1.00;;;;;;5032515;28;20225;-55
2023/09/21 08:22:26;;;;;;;;;;;21.90;1.00;;;;;;5033632;28;20345;-55
2023/09/21 08:24:53;;;;;;;;;;;21.90;1.00;;;;;;5033506;28;19929;-56
2023/09/21 08:27:22;;;;;;;;;;;21.90;1.00;;;;;;5033462;28;19965;-56
2023/09/21 08:29:49;;;;;;;;;;;21.90;1.00;;;;;;5033339;28;19929;-56
2023/09/21 08:32:18;;;;;;;;;;;21.90;1.00;;;;;;5033351;28;19932;-53
2023/09/21 08:34:44;;;;;;;;;;;21.90;1.00;;;;;;5033305;28;20462;-55
2023/09/21 08:37:11;;;;;;;;;;;21.90;1.00;;;;;;5033115;28;19925;-55
2023/09/21 08:39:38;;;;;;;;;;;21.90;1.00;;;;;;5033114;28;19925;-56
2023/09/21 08:42:05;;;;;;;;;;;21.90;1.00;;;;;;5033093;28;19929;-56
2023/09/21 08:44:32;;;;;;;;;;;21.90;1.00;;;;;;5033317;28;19932;-53
2023/09/21 08:47:00;;;;;;;;;;;21.90;1.00;;;;;;5032670;28;19932;-56
2023/09/21 08:49:28;;;;;;;;;;;21.90;1.00;;;;;;5033122;28;19929;-55
2023/09/21 08:51:56;;;;;;;;;;;21.90;1.00;;;;;;5032925;28;19971;-56
2023/09/21 08:54:23;;;;;;;;;;;21.90;1.00;;;;;;5033023;28;19936;-55
2023/09/21 08:56:55;;;;;;;;;;;21.90;1.00;;;;;;5032555;28;19925;-55
2023/09/21 08:59:24;;;;;;;;;;;21.90;1.00;;;;;;5032558;28;20008;-56
2023/09/21 09:01:51;;;;;;;;;;;21.90;1.00;;;;;;5033000;28;19926;-56
2023/09/21 09:04:20;;;;;;;;;;;21.90;1.00;;;;;;5033263;28;19925;-55
2023/09/21 09:06:47;;;;;;;;;;;21.90;1.00;;;;;;5033667;28;19965;-53
2023/09/21 09:09:15;;;;;;;;;;;21.90;1.00;;;;;;5035211;28;19925;-56
2023/09/21 09:11:44;;;;;;;;;;;21.90;1.00;;;;;;5033609;28;19972;-56
2023/09/21 09:14:13;;;;;;;;;;;21.90;1.00;;;;;;5034056;28;19925;-52
2023/09/21 09:16:39;;;;;;;;;;;21.90;1.00;;;;;;5033173;28;20403;-55
2023/09/21 09:19:06;;;;;;;;;;;21.90;1.00;;;;;;5032357;28;19925;-52
2023/09/21 09:21:33;;;;;;;;;;;21.90;1.00;;;;;;5032645;28;20294;-54
2023/09/21 09:24:00;;;;;;;;;;;21.90;1.00;;;;;;5032491;28;20306;-50
2023/09/21 09:26:27;;;;;;;;;;;21.90;1.00;;;;;;5032163;28;19925;-52
2023/09/21 09:29:07;;;;;;;;;;;21.90;1.00;;;;;;5032922;28;20015;-54
2023/09/21 09:31:34;;;;;;;;;;;21.90;1.00;;;;;;5032909;28;20387;-53
2023/09/21 09:34:03;;;;;;;;;;;21.90;1.00;;;;;;5032536;28;19972;-54
2023/09/21 09:36:32;;;;;;;;;;;21.90;1.00;;;;;;5032050;28;19929;-52
2023/09/21 09:39:00;;;;;;;;;;;21.90;1.00;;;;;;5032072;28;20386;-54
2023/09/21 09:41:28;;;;;;;;;;;21.90;1.00;;;;;;5032256;28;19959;-53
2023/09/21 09:43:56;;;;;;;;;;;21.90;1.00;;;;;;5032317;28;20046;-55
2023/09/21 09:46:25;;;;;;;;;;;21.90;1.00;;;;;;5031871;28;20040;-52
2023/09/21 09:48:57;;;;;;;;;;;21.90;1.00;;;;;;5032087;28;20271;-51
2023/09/21 09:51:37;;;;;;;;;;;21.90;1.00;;;;;;5032072;28;19925;-50
2023/09/21 09:54:04;;;;;;;;;;;21.90;1.00;;;;;;5032260;28;19929;-51
2023/09/21 09:56:32;;;;;;;;;;;21.90;1.00;;;;;;5031801;28;19925;-52
2023/09/21 09:59:02;;;;;;;;;;;21.90;1.00;;;;;;5032490;28;19932;-54
2023/09/21 10:01:29;;;;;;;;;;;21.90;1.00;;;;;;5032162;28;19925;-50
2023/09/21 10:03:57;;;;;;;;;;;21.90;1.00;;;;;;5032483;28;19925;-56
2023/09/21 10:06:25;;;;;;;;;;;21.90;1.00;;;;;;5031457;28;19972;-55
2023/09/21 10:08:54;;;;;;;;;;;21.90;1.00;;;;;;5032113;28;19995;-50
2023/09/21 10:11:22;;;;;;;;;;;21.90;1.00;;;;;;5033496;28;19971;-51
2023/09/21 10:13:51;;;;;;;;;;;21.90;1.00;;;;;;5035994;28;20302;-52
2023/09/21 10:16:23;;;;;;;;;;;21.90;1.00;;;;;;5035795;28;19971;-50
2023/09/21 10:18:57;;;;;;;;;;;21.90;1.00;;;;;;5036134;28;20020;-52
2023/09/21 10:21:31;;;;;;;;;;;21.90;1.00;;;;;;5035867;28;19961;-51
2023/09/21 10:24:04;;;;;;;;;;;21.90;1.00;;;;;;5035889;28;19925;-53
2023/09/21 10:26:33;;;;;;;;;;;21.90;1.00;;;;;;5034540;28;19995;-53
2023/09/21 10:29:04;;;;;;;;;;;21.90;1.00;;;;;;5035762;28;20375;-50
2023/09/21 10:31:32;;;;;;;;;;;21.90;1.00;;;;;;5035757;28;19932;-51
2023/09/21 10:33:59;;;;;;;;;;;21.90;1.00;;;;;;5035752;28;19925;-50
2023/09/21 10:36:26;;;;;;;;;;;21.90;1.00;;;;;;5035262;28;19940;-54
2023/09/21 10:39:25;;;;;;;;;;;21.90;1.00;;;;;;5036040;28;19933;-51
2023/09/21 10:42:17;;;;;;;;;;;21.90;1.00;;;;;;5027594;28;19926;-50
2023/09/21 10:44:59;;;;;;;;;;;21.90;1.00;;;;;;5030575;28;20306;-51
2023/09/21 10:47:30;;;;;;;;;;;21.90;1.00;;;;;;5035186;28;20358;-50
2023/09/21 10:50:06;;;;;;;;;;;21.90;1.00;;;;;;5035275;28;19965;-50
2023/09/21 10:52:34;;;;;;;;;;;21.90;1.00;;;;;;5035165;28;20347;-51
2023/09/21 10:55:01;;;;;;;;;;;21.90;1.00;;;;;;5035318;28;19925;-51
2023/09/21 10:57:29;;;;;;;;;;;21.90;1.00;;;;;;5034939;28;20008;-54
2023/09/21 10:59:59;;;;;;;;;;;21.90;1.00;;;;;;5035122;28;19925;-52
2023/09/21 11:02:38;;;;;;;;;;;21.90;1.00;;;;;;5033963;28;20009;-51
2023/09/21 11:05:07;;;;;;;;;;;21.90;1.00;;;;;;5034833;28;19960;-52
2023/09/21 11:07:34;;;;;;;;;;;21.90;1.00;;;;;;5033734;28;19960;-50
2023/09/21 11:10:02;;;;;;;;;;;21.90;1.00;;;;;;5035107;28;19979;-51
2023/09/21 11:12:30;;;;;;;;;;;21.90;1.00;;;;;;5034665;28;19925;-55
2023/09/21 11:14:57;;;;;;;;;;;21.90;1.00;;;;;;5034782;28;19925;-52
2023/09/21 11:17:24;;;;;;;;;;;21.90;1.00;;;;;;5034571;28;19976;-55
2023/09/21 11:19:51;;;;;;;;;;;21.90;1.00;;;;;;5034881;28;19932;-55
2023/09/21 11:22:18;;;;;;;;;;;21.90;1.00;;;;;;5034352;28;19972;-54
2023/09/21 11:24:46;;;;;;;;;;;21.90;1.00;;;;;;5034817;28;19925;-53
2023/09/21 11:27:14;;;;;;;;;;;21.90;1.00;;;;;;5034299;28;20349;-52
2023/09/21 11:29:42;;;;;;;;;;;21.90;1.00;;;;;;5034626;28;20378;-52
2023/09/21 11:32:10;;;;;;;;;;;21.90;1.00;;;;;;5034383;28;20027;-55
2023/09/21 11:34:39;;;;;;;;;;;21.90;1.00;;;;;;5034607;28;20184;-50
2023/09/21 11:37:07;;;;;;;;;;;21.90;1.00;;;;;;5034040;28;19931;-52
2023/09/21 11:39:41;;;;;;;;;;;21.90;1.00;;;;;;5034483;28;19961;-53
2023/09/21 11:42:10;;;;;;;;;;;21.90;1.00;;;;;;5034308;28;20029;-52
2023/09/21 11:44:37;;;;;;;;;;;21.90;1.00;;;;;;5034231;28;20301;-53
2023/09/21 11:47:09;;;;;;;;;;;21.90;1.00;;;;;;5033631;28;19936;-51
2023/09/21 11:49:37;;;;;;;;;;;21.90;1.00;;;;;;5033937;28;19925;-51
2023/09/21 11:52:03;;;;;;;;;;;21.90;1.00;;;;;;5034137;28;19929;-51
2023/09/21 11:54:38;;;;;;;;;;;21.90;1.00;;;;;;5034336;28;20211;-53
2023/09/21 11:57:09;;;;;;;;;;;21.90;1.00;;;;;;5033807;28;20441;-51
2023/09/21 11:59:39;;;;;;;;;;;21.90;1.00;;;;;;5034212;28;19971;-50
2023/09/21 12:02:09;;;;;;;;;;;21.90;1.00;;;;;;5033916;28;19925;-54
2023/09/21 12:04:37;;;;;;;;;;;21.90;1.00;;;;;;5033977;28;19925;-53
2023/09/21 12:07:09;;;;;;;;;;;21.80;1.00;;;;;;5033594;28;19929;-53
2023/09/21 12:09:36;;;;;;;;;;;21.90;1.00;;;;;;5033913;28;20323;-51
2023/09/21 12:12:05;;;;;;;;;;;21.90;1.00;;;;;;5033573;28;19925;-50
2023/09/21 12:14:36;;;;;;;;;;;21.90;1.00;;;;;;5033737;28;19925;-55
2023/09/21 12:17:09;;;;;;;;;;;21.90;1.00;;;;;;5033445;28;20309;-51
2023/09/21 12:19:36;;;;;;;;;;;21.90;1.00;;;;;;5032380;28;19925;-51
2023/09/21 12:22:05;;;;;;;;;;;21.90;1.00;;;;;;5033583;28;19947;-50
2023/09/21 12:24:35;;;;;;;;;;;21.90;1.00;;;;;;5033635;28;19931;-54
2023/09/21 12:27:05;;;;;;;;;;;21.90;1.00;;;;;;5033202;28;20399;-51
2023/09/21 12:29:33;;;;;;;;;;;21.90;1.00;;;;;;5033620;28;20047;-53
2023/09/21 12:32:04;;;;;;;;;;;21.90;1.00;;;;;;5033386;28;20283;-54
2023/09/21 12:34:34;;;;;;;;;;;21.90;1.00;;;;;;5032841;28;19972;-50
2023/09/21 12:37:01;;;;;;;;;;;21.90;1.00;;;;;;5032985;28;19932;-55
2023/09/21 12:39:28;;;;;;;;;;;21.90;1.00;;;;;;5025352;28;19956;-51
2023/09/21 12:41:55;;;;;;;;;;;21.90;1.00;;;;;;5033167;28;19925;-51
2023/09/21 12:44:22;;;;;;;;;;;21.90;1.00;;;;;;5033073;28;19925;-51
2023/09/21 12:46:50;;;;;;;;;;;21.90;1.00;;;;;;5032810;28;19925;-51
2023/09/21 12:49:17;;;;;;;;;;;21.90;1.00;;;;;;5033080;28;19929;-52
2023/09/21 12:51:45;;;;;;;;;;;21.90;1.00;;;;;;5033060;28;20020;-50
2023/09/21 12:54:12;;;;;;;;;;;21.90;1.00;;;;;;5033060;28;19925;-50
2023/09/21 12:56:39;;;;;;;;;;;21.90;1.00;;;;;;5032687;28;19948;-52
2023/09/21 12:59:06;;;;;;;;;;;21.90;1.00;;;;;;5032827;28;19975;-52
2023/09/21 13:01:33;;;;;;;;;;;21.90;1.00;;;;;;5032786;28;19951;-51
2023/09/21 13:04:00;;;;;;;;;;;21.90;1.00;;;;;;5032884;28;19932;-50
2023/09/21 13:06:28;;;;;;;;;;;21.90;1.00;;;;;;5032294;28;20024;-51
2023/09/21 13:08:56;;;;;;;;;;;21.90;1.00;;;;;;5032695;28;19929;-52
2023/09/21 13:11:22;;;;;;;;;;;21.90;1.00;;;;;;5032564;28;20003;-54
2023/09/21 13:13:49;;;;;;;;;;;21.90;1.00;;;;;;5032570;28;20024;-56
2023/09/21 13:16:16;;;;;;;;;;;21.90;1.00;;;;;;5032226;28;19952;-53
2023/09/21 13:18:44;;;;;;;;;;;21.90;1.00;;;;;;5032574;28;19925;-53
2023/09/21 13:21:11;;;;;;;;;;;21.90;1.00;;;;;;5032579;28;19925;-54
2023/09/21 13:23:39;;;;;;;;;;;21.90;1.00;;;;;;5032568;28;19925;-55
2023/09/21 13:26:07;;;;;;;;;;;21.90;1.00;;;;;;5032179;28;20436;-53
2023/09/21 13:28:33;;;;;;;;;;;21.90;1.00;;;;;;5032543;28;19929;-53
2023/09/21 13:31:01;;;;;;;;;;;21.90;1.00;;;;;;5032496;28;19925;-53
2023/09/21 13:33:29;;;;;;;;;;;21.90;1.00;;;;;;5032261;28;19969;-51
2023/09/21 13:35:57;;;;;;;;;;;21.90;1.00;;;;;;5032088;28;20383;-52
2023/09/21 13:38:27;;;;;;;;;;;21.90;1.00;;;;;;5032613;28;19925;-52
2023/09/21 13:40:57;;;;;;;;;;;21.90;1.00;;;;;;5032381;28;19947;-51
2023/09/21 13:43:25;;;;;;;;;;;21.90;1.00;;;;;;5032358;28;20342;-51
2023/09/21 13:45:52;;;;;;;;;;;21.90;1.00;;;;;;5031697;28;19932;-51
2023/09/21 13:48:21;;;;;;;;;;;21.90;1.00;;;;;;5032461;28;20335;-50
2023/09/21 13:50:50;;;;;;;;;;;21.90;1.00;;;;;;5029151;28;19925;-51
2023/09/21 13:53:19;;;;;;;;;;;21.90;1.00;;;;;;5029144;28;19925;-53
2023/09/21 13:55:46;;;;;;;;;;;21.90;1.00;;;;;;5032059;28;20382;-55
2023/09/21 13:58:14;;;;;;;;;;;21.90;1.00;;;;;;5032034;28;19932;-50
2023/09/21 14:00:41;;;;;;;;;;;21.90;1.00;;;;;;5032134;28;19956;-53
2023/09/21 14:03:07;;;;;;;;;;;21.90;1.00;;;;;;5032204;28;19940;-53
2023/09/21 14:05:35;;;;;;;;;;;21.90;1.00;;;;;;5031671;28;19925;-52
2023/09/21 14:08:03;;;;;;;;;;;21.90;1.00;;;;;;5032496;28;19925;-51
2023/09/21 14:10:30;;;;;;;;;;;21.90;1.00;;;;;;5031981;28;20438;-50
2023/09/21 14:12:57;;;;;;;;;;;21.90;1.00;;;;;;5031906;28;19925;-52
2023/09/21 14:15:24;;;;;;;;;;;21.90;1.00;;;;;;5029720;28;19933;-50
2023/09/21 14:17:51;;;;;;;;;;;21.90;1.00;;;;;;5031619;28;20418;-51
2023/09/21 14:20:19;;;;;;;;;;;21.90;1.00;;;;;;5031974;28;19925;-51
2023/09/21 14:22:45;;;;;;;;;;;21.90;1.00;;;;;;5033177;28;20028;-52
2023/09/21 14:25:12;;;;;;;;;;;21.90;1.00;;;;;;5030572;28;19932;-51
2023/09/21 14:27:39;;;;;;;;;;;21.90;1.00;;;;;;5025932;28;19956;-51
2023/09/21 14:30:06;;;;;;;;;;;21.90;1.00;;;;;;5033181;28;19976;-52
2023/09/21 14:32:34;;;;;;;;;;;21.90;1.00;;;;;;5032070;28;19929;-51
2023/09/21 14:35:03;;;;;;;;;;;21.90;1.00;;;;;;5029314;28;19925;-50
2023/09/21 14:37:30;;;;;;;;;;;21.80;1.00;;;;;;5026620;28;19933;-50
2023/09/21 14:39:59;;;;;;;;;;;21.80;1.00;;;;;;5032095;28;19932;-50
2023/09/21 14:42:28;;;;;;;;;;;21.80;1.00;;;;;;5029535;28;19925;-51